createdAt,value
2022-07-25T00:00:11.937Z,44.97
2022-07-25T00:02:40.649Z,45.30
2022-07-25T00:05:10.002Z,44.72
2022-07-25T00:07:38.692Z,44.83
2022-07-25T00:10:08.365Z,44.86
2022-07-25T00:12:36.854Z,45.01
2022-07-25T00:15:06.504Z,44.87
2022-07-25T00:17:36.572Z,45.01
2022-07-25T00:20:06.464Z,45.11
2022-07-25T00:22:35.313Z,45.33
2022-07-25T00:25:04.118Z,45.50
2022-07-25T00:27:32.954Z,45.41
2022-07-25T00:30:01.445Z,45.21
2022-07-25T00:32:29.997Z,45.41
2022-07-25T00:35:00.302Z,45.64
2022-07-25T00:37:28.797Z,45.68
2022-07-25T00:39:57.550Z,45.60
2022-07-25T00:42:26.046Z,45.80
2022-07-25T00:44:54.503Z,45.80
2022-07-25T00:47:23.096Z,45.77
2022-07-25T00:49:51.504Z,45.95
2022-07-25T00:52:21.461Z,45.78
2022-07-25T00:54:50.090Z,45.81
2022-07-25T00:57:18.750Z,45.96
2022-07-25T00:59:47.793Z,46.01
2022-07-25T01:02:16.362Z,45.94
2022-07-25T01:04:45.002Z,46.31
2022-07-25T01:07:13.438Z,46.10
2022-07-25T01:09:43.867Z,46.07
2022-07-25T01:12:12.410Z,46.15
2022-07-25T01:14:40.954Z,46.22
2022-07-25T01:17:09.484Z,46.27
2022-07-25T01:19:40.354Z,46.71
2022-07-25T01:22:11.940Z,46.67
2022-07-25T01:24:42.142Z,46.52
2022-07-25T01:27:17.411Z,46.62
2022-07-25T01:29:47.020Z,46.62
2022-07-25T01:32:16.926Z,46.69
2022-07-25T01:34:45.963Z,46.95
2022-07-25T01:37:17.315Z,47.09
2022-07-25T01:39:46.060Z,46.86
2022-07-25T01:42:14.559Z,46.93
2022-07-25T01:44:43.086Z,47.05
2022-07-25T01:47:12.081Z,47.23
2022-07-25T01:49:40.742Z,47.35
2022-07-25T01:52:09.246Z,47.51
2022-07-25T01:54:39.562Z,47.74
2022-07-25T01:57:09.094Z,47.58
2022-07-25T01:59:40.809Z,47.65
2022-07-25T02:02:10.794Z,47.63
2022-07-25T02:04:39.456Z,47.82
2022-07-25T02:07:08.082Z,48.07
2022-07-25T02:09:36.754Z,47.97
2022-07-25T02:12:07.862Z,47.90
2022-07-25T02:14:36.803Z,48.01
2022-07-25T02:17:05.360Z,48.34
2022-07-25T02:19:34.457Z,48.07
2022-07-25T02:22:03.095Z,48.00
2022-07-25T02:24:32.667Z,48.17
2022-07-25T02:27:01.241Z,48.65
2022-07-25T02:29:32.471Z,48.58
2022-07-25T02:32:01.110Z,48.42
2022-07-25T02:34:29.831Z,48.36
2022-07-25T02:36:58.493Z,47.89
2022-07-25T02:39:26.956Z,48.05
2022-07-25T02:41:55.897Z,47.78
2022-07-25T02:44:24.421Z,47.61
2022-07-25T02:46:54.344Z,47.52
2022-07-25T02:49:22.890Z,47.57
2022-07-25T02:51:51.778Z,47.30
2022-07-25T02:54:21.239Z,47.48
2022-07-25T02:56:49.990Z,47.39
2022-07-25T02:59:18.881Z,47.35
2022-07-25T03:01:47.334Z,46.98
2022-07-25T03:04:17.829Z,47.13
2022-07-25T03:06:48.398Z,46.99
2022-07-25T03:09:16.939Z,46.86
2022-07-25T03:11:46.053Z,46.58
2022-07-25T03:14:14.677Z,46.74
2022-07-25T03:16:43.186Z,46.57
2022-07-25T03:19:13.055Z,46.40
2022-07-25T03:21:42.994Z,46.34
2022-07-25T03:24:11.676Z,46.23
2022-07-25T03:26:40.262Z,46.18
2022-07-25T03:29:08.760Z,46.07
2022-07-25T03:31:37.245Z,46.07
2022-07-25T03:34:06.207Z,46.02
2022-07-25T03:36:35.239Z,46.21
2022-07-25T03:39:05.744Z,46.04
2022-07-25T03:41:34.600Z,46.20
2022-07-25T03:44:03.833Z,46.17
2022-07-25T03:46:32.649Z,46.44
2022-07-25T03:49:01.232Z,46.52
2022-07-25T03:51:29.920Z,46.35
2022-07-25T03:54:05.422Z,46.55
2022-07-25T03:56:43.818Z,46.84
2022-07-25T03:59:13.887Z,46.94
2022-07-25T04:01:43.020Z,47.28
2022-07-25T04:04:12.536Z,47.09
2022-07-25T04:06:41.875Z,47.12
2022-07-25T04:09:11.153Z,47.38
2022-07-25T04:11:41.153Z,47.77
2022-07-25T04:14:10.487Z,47.76
2022-07-25T04:16:39.389Z,48.04
2022-07-25T04:19:09.085Z,48.13
2022-07-25T04:21:38.252Z,48.43
2022-07-25T04:24:07.809Z,48.44
2022-07-25T04:26:36.545Z,48.47
2022-07-25T04:29:06.885Z,48.53
2022-07-25T04:31:35.499Z,48.66
2022-07-25T04:34:04.385Z,48.42
2022-07-25T04:36:33.033Z,48.59
2022-07-25T04:39:01.559Z,48.28
2022-07-25T04:41:30.475Z,48.27
2022-07-25T04:43:59.717Z,48.29
2022-07-25T04:46:29.549Z,48.12
2022-07-25T04:48:58.081Z,48.28
2022-07-25T04:51:27.352Z,48.38
2022-07-25T04:53:56.842Z,48.46
2022-07-25T04:56:25.663Z,48.47
2022-07-25T04:58:54.097Z,48.59
2022-07-25T05:01:22.606Z,48.56
2022-07-25T05:03:52.921Z,48.65
2022-07-25T05:06:21.726Z,48.45
2022-07-25T05:08:50.326Z,48.42
2022-07-25T05:11:19.072Z,48.31
2022-07-25T05:13:47.604Z,48.24
2022-07-25T05:16:16.473Z,48.19
2022-07-25T05:18:45.116Z,48.11
2022-07-25T05:21:15.302Z,47.99
2022-07-25T05:23:44.321Z,47.97
2022-07-25T05:26:13.149Z,47.92
2022-07-25T05:28:41.759Z,48.06
2022-07-25T05:31:10.851Z,48.10
2022-07-25T05:33:39.932Z,47.98
2022-07-25T05:36:09.343Z,48.06
2022-07-25T05:38:39.614Z,47.90
2022-07-25T05:41:08.234Z,47.97
2022-07-25T05:43:36.802Z,47.71
2022-07-25T05:46:06.442Z,47.69
2022-07-25T05:48:34.973Z,47.40
2022-07-25T05:51:03.425Z,47.25
2022-07-25T05:53:31.978Z,47.08
2022-07-25T05:56:01.959Z,47.02
2022-07-25T05:58:30.492Z,46.67
2022-07-25T06:00:59.599Z,46.62
2022-07-25T06:03:28.114Z,46.46
2022-07-25T06:05:57.983Z,46.21
2022-07-25T06:08:28.764Z,46.11
2022-07-25T06:10:57.779Z,46.26
2022-07-25T06:13:28.403Z,45.96
2022-07-25T06:15:57.140Z,45.66
2022-07-25T06:18:26.499Z,45.66
2022-07-25T06:20:55.249Z,45.53
2022-07-25T06:23:23.808Z,45.45
2022-07-25T06:25:56.389Z,45.30
2022-07-25T06:28:24.852Z,45.18
2022-07-25T06:30:54.842Z,45.07
2022-07-25T06:33:23.482Z,44.74
2022-07-25T06:35:51.969Z,44.63
2022-07-25T06:38:20.440Z,44.53
2022-07-25T06:40:49.290Z,44.29
2022-07-25T06:43:17.728Z,44.49
2022-07-25T06:45:47.758Z,44.25
2022-07-25T06:48:18.265Z,44.29
2022-07-25T06:50:46.789Z,43.85
2022-07-25T06:53:16.001Z,43.71
2022-07-25T06:55:44.417Z,43.64
2022-07-25T06:58:13.073Z,43.61
2022-07-25T07:00:41.654Z,43.45
2022-07-25T07:03:10.185Z,43.44
2022-07-25T07:05:42.232Z,43.00
2022-07-25T07:08:10.913Z,42.95
2022-07-25T07:10:40.746Z,42.92
2022-07-25T07:13:10.574Z,42.72
2022-07-25T07:15:40.209Z,42.74
2022-07-25T07:18:08.841Z,42.48
2022-07-25T07:20:37.421Z,42.36
2022-07-25T07:23:07.296Z,42.43
2022-07-25T07:25:37.723Z,42.18
2022-07-25T07:28:06.655Z,42.16
2022-07-25T07:31:05.777Z,42.11
2022-07-25T07:33:24.370Z,41.85
2022-07-25T07:35:52.825Z,41.50
2022-07-25T07:38:22.802Z,41.57
2022-07-25T07:40:51.220Z,41.28
2022-07-25T07:43:20.069Z,41.70
2022-07-25T07:45:48.925Z,41.37
2022-07-25T07:48:17.734Z,41.09
2022-07-25T07:50:46.284Z,41.18
2022-07-25T07:53:14.739Z,40.93
2022-07-25T07:55:46.690Z,40.91
2022-07-25T07:58:17.007Z,40.56
2022-07-25T08:00:46.566Z,40.54
2022-07-25T08:03:18.592Z,40.00
2022-07-25T08:05:49.428Z,39.94
2022-07-25T08:08:18.173Z,39.70
2022-07-25T08:10:50.212Z,39.84
2022-07-25T08:13:20.056Z,39.71
2022-07-25T08:15:49.923Z,39.35
2022-07-25T08:18:19.681Z,39.68
2022-07-25T08:20:48.558Z,39.35
2022-07-25T08:23:17.717Z,38.87
2022-07-25T08:25:48.116Z,38.90
2022-07-25T08:28:17.254Z,38.88
2022-07-25T08:30:45.621Z,38.81
2022-07-25T08:33:16.584Z,38.54
2022-07-25T08:35:48.262Z,38.72
2022-07-25T08:38:17.213Z,38.37
2022-07-25T08:40:45.831Z,37.96
2022-07-25T08:43:17.796Z,38.16
2022-07-25T08:45:49.037Z,38.12
2022-07-25T08:48:20.424Z,37.66
2022-07-25T08:50:50.086Z,37.83
2022-07-25T08:53:36.103Z,37.65
2022-07-25T08:56:12.222Z,37.52
2022-07-25T08:58:44.579Z,37.58
2022-07-25T09:01:14.041Z,37.56
2022-07-25T09:03:44.186Z,37.46
2022-07-25T09:06:21.017Z,37.25
2022-07-25T09:08:53.893Z,36.92
2022-07-25T09:11:33.081Z,37.27
2022-07-25T09:14:06.871Z,36.86
2022-07-25T09:16:39.982Z,36.66
2022-07-25T09:19:12.184Z,36.78
2022-07-25T09:21:42.294Z,37.07
2022-07-25T09:24:13.263Z,36.62
2022-07-25T09:26:49.389Z,36.60
2022-07-25T09:29:21.229Z,36.35
2022-07-25T09:31:50.238Z,36.15
2022-07-25T09:34:31.476Z,36.21
2022-07-25T09:37:00.096Z,35.63
2022-07-25T09:39:45.358Z,35.34
2022-07-25T09:42:20.789Z,35.47
2022-07-25T09:45:11.953Z,35.56
2022-07-25T09:47:52.541Z,35.60
2022-07-25T09:50:21.846Z,35.21
2022-07-25T09:52:53.833Z,35.33
2022-07-25T09:55:23.277Z,35.32
2022-07-25T09:57:52.794Z,35.09
2022-07-25T10:00:25.780Z,35.19
2022-07-25T10:03:10.002Z,35.09
2022-07-25T10:05:59.547Z,34.77
2022-07-25T10:08:28.995Z,34.71
2022-07-25T10:10:58.163Z,34.58
2022-07-25T10:13:35.710Z,34.51
2022-07-25T10:16:16.735Z,34.08
2022-07-25T10:18:50.891Z,34.23
2022-07-25T10:21:28.906Z,34.13
2022-07-25T10:24:03.458Z,33.43
2022-07-25T10:26:32.557Z,33.75
2022-07-25T10:29:01.951Z,33.80
2022-07-25T10:31:39.992Z,33.70
2022-07-25T10:34:11.099Z,33.66
2022-07-25T10:36:45.308Z,33.45
2022-07-25T10:39:15.230Z,33.32
2022-07-25T10:41:45.413Z,33.25
2022-07-25T10:44:15.798Z,33.02
2022-07-25T10:46:47.276Z,33.04
2022-07-25T10:49:29.101Z,32.92
2022-07-25T10:52:03.287Z,32.82
2022-07-25T10:54:36.162Z,32.68
2022-07-25T10:57:06.666Z,32.42
2022-07-25T10:59:36.671Z,31.95
2022-07-25T11:02:08.971Z,32.09
2022-07-25T11:04:38.509Z,32.05
2022-07-25T11:07:10.960Z,31.94
2022-07-25T11:09:40.919Z,31.83
2022-07-25T11:12:10.437Z,31.60
2022-07-25T11:14:41.958Z,31.21
2022-07-25T11:17:20.503Z,31.29
2022-07-25T11:19:57.210Z,30.90
2022-07-25T11:22:26.295Z,31.30
2022-07-25T11:24:55.121Z,31.12
2022-07-25T11:27:26.208Z,30.92
2022-07-25T11:29:54.895Z,30.64
2022-07-25T11:32:24.739Z,30.47
2022-07-25T11:34:55.609Z,30.48
2022-07-25T11:37:24.318Z,29.91
2022-07-25T11:39:53.170Z,29.55
2022-07-25T11:42:22.625Z,29.60
2022-07-25T11:44:52.860Z,29.38
2022-07-25T11:47:27.719Z,29.47
2022-07-25T11:49:58.591Z,29.45
2022-07-25T11:52:30.048Z,29.39
2022-07-25T11:55:00.325Z,29.25
2022-07-25T11:57:30.897Z,28.89
2022-07-25T12:00:02.763Z,28.88
2022-07-25T12:02:35.471Z,28.90
2022-07-25T12:05:07.581Z,29.10
2022-07-25T12:07:41.033Z,28.98
2022-07-25T12:10:11.879Z,28.74
2022-07-25T12:12:48.842Z,28.28
2022-07-25T12:15:20.378Z,28.61
2022-07-25T12:17:50.997Z,28.48
2022-07-25T12:20:21.675Z,28.23
2022-07-25T12:22:51.930Z,27.75
2022-07-25T12:25:20.865Z,26.95
2022-07-25T12:27:49.740Z,27.18
2022-07-25T12:30:19.039Z,27.71
2022-07-25T12:32:47.861Z,26.87
2022-07-25T12:35:17.900Z,26.54
2022-07-25T12:37:46.921Z,26.44
2022-07-25T12:40:16.791Z,26.74
2022-07-25T12:42:45.880Z,26.79
2022-07-25T12:45:15.741Z,26.76
2022-07-25T12:47:44.833Z,26.71
2022-07-25T12:50:14.438Z,26.42
2022-07-25T12:52:45.350Z,25.80
2022-07-25T12:55:16.243Z,25.65
2022-07-25T12:57:45.044Z,26.23
2022-07-25T13:00:16.579Z,25.73
2022-07-25T13:02:45.570Z,25.84
2022-07-25T13:05:14.629Z,25.76
2022-07-25T13:07:44.849Z,26.03
2022-07-25T13:10:13.549Z,25.82
2022-07-25T13:12:42.070Z,25.57
2022-07-25T13:15:11.334Z,25.20
2022-07-25T13:17:40.561Z,25.30
2022-07-25T13:20:10.786Z,24.95
2022-07-25T13:22:39.575Z,25.32
2022-07-25T13:25:10.014Z,24.92
2022-07-25T13:27:40.169Z,25.23
2022-07-25T13:30:10.310Z,25.34
2022-07-25T13:32:39.180Z,25.44
2022-07-25T13:35:08.440Z,25.96
2022-07-25T13:37:37.110Z,26.14
2022-07-25T13:40:06.849Z,26.09
2022-07-25T13:42:36.776Z,26.37
2022-07-25T13:45:05.595Z,26.24
2022-07-25T13:47:35.837Z,26.70
2022-07-25T13:50:04.330Z,26.32
2022-07-25T13:52:32.883Z,26.15
2022-07-25T13:55:01.413Z,26.17
2022-07-25T13:57:29.910Z,25.73
2022-07-25T14:00:00.090Z,25.65
2022-07-25T14:02:28.913Z,25.37
2022-07-25T14:05:00.901Z,25.90
2022-07-25T14:07:32.374Z,26.04
2022-07-25T14:10:01.193Z,26.00
2022-07-25T14:12:29.696Z,25.49
2022-07-25T14:14:59.881Z,25.77
2022-07-25T14:17:30.601Z,25.35
2022-07-25T14:19:59.113Z,25.44
2022-07-25T14:22:28.037Z,24.85
2022-07-25T14:24:57.130Z,25.24
2022-07-25T14:27:25.743Z,25.57
2022-07-25T14:29:54.888Z,24.24
2022-07-25T14:32:24.965Z,24.86
2022-07-25T14:34:54.014Z,24.52
2022-07-25T14:37:23.691Z,24.26
2022-07-25T14:39:52.487Z,24.19
2022-07-25T14:42:20.972Z,24.80
2022-07-25T14:44:49.594Z,24.54
2022-07-25T14:47:18.541Z,24.83
2022-07-25T14:49:48.621Z,24.83
2022-07-25T14:52:17.506Z,24.99
2022-07-25T14:54:46.646Z,24.74
2022-07-25T14:57:15.304Z,25.42
2022-07-25T14:59:43.751Z,25.17
2022-07-25T15:02:12.678Z,25.35
2022-07-25T15:04:41.334Z,25.85
2022-07-25T15:07:11.377Z,25.78
2022-07-25T15:09:39.875Z,27.08
2022-07-25T15:12:12.176Z,28.31
2022-07-25T15:14:44.953Z,28.66
2022-07-25T15:17:14.200Z,29.47
2022-07-25T15:19:43.211Z,30.17
2022-07-25T15:22:13.701Z,30.80
2022-07-25T15:25:13.981Z,30.80
2022-07-25T15:27:30.872Z,30.45
2022-07-25T15:29:59.243Z,30.36
2022-07-25T15:32:27.709Z,30.04
2022-07-25T15:34:56.194Z,30.41
2022-07-25T15:37:26.386Z,30.37
2022-07-25T15:39:55.458Z,29.95
2022-07-25T15:42:28.881Z,30.10
2022-07-25T15:45:22.289Z,29.72
2022-07-25T15:47:50.811Z,29.30
2022-07-25T15:50:19.750Z,29.43
2022-07-25T15:52:49.910Z,29.73
2022-07-25T15:55:18.709Z,29.68
2022-07-25T15:57:47.286Z,29.54
2022-07-25T16:00:16.337Z,29.43
2022-07-25T16:02:45.863Z,29.42
2022-07-25T16:05:15.526Z,30.04
2022-07-25T16:07:44.233Z,30.11
2022-07-25T16:10:14.701Z,29.86
2022-07-25T16:12:43.286Z,29.42
2022-07-25T16:15:12.986Z,30.09
2022-07-25T16:17:41.676Z,31.89
2022-07-25T16:20:11.972Z,32.66
2022-07-25T16:22:40.763Z,33.64
2022-07-25T16:25:10.100Z,34.21
2022-07-25T16:27:40.019Z,34.55
2022-07-25T16:30:09.879Z,34.97
2022-07-25T16:32:38.416Z,34.57
2022-07-25T16:35:07.533Z,34.58
2022-07-25T16:37:36.390Z,34.39
2022-07-25T16:40:05.491Z,34.42
2022-07-25T16:42:33.968Z,34.25
2022-07-25T16:45:03.881Z,34.03
2022-07-25T16:47:32.548Z,34.00
2022-07-25T16:50:01.219Z,34.24
2022-07-25T16:52:30.566Z,34.70
2022-07-25T16:54:59.641Z,34.91
2022-07-25T16:57:28.078Z,34.98
2022-07-25T16:59:57.097Z,34.91
2022-07-25T17:02:29.754Z,34.70
2022-07-25T17:04:59.206Z,34.57
2022-07-25T17:07:28.110Z,34.43
2022-07-25T17:09:56.752Z,34.07
2022-07-25T17:12:25.655Z,34.08
2022-07-25T17:21:09.651Z,34.14
2022-07-25T17:27:01.222Z,33.74
2022-07-25T17:29:52.642Z,34.67
2022-07-25T17:36:03.862Z,34.72
2022-07-25T17:39:05.172Z,34.99
2022-07-25T17:41:38.294Z,35.67
2022-07-25T17:44:11.824Z,35.61
2022-07-25T17:46:46.134Z,35.45
2022-07-25T17:49:17.157Z,35.50
2022-07-25T17:52:09.201Z,35.52
2022-07-25T17:54:40.881Z,35.01
2022-07-25T17:57:11.349Z,34.92
2022-07-25T17:59:51.514Z,34.88
2022-07-25T18:02:20.154Z,35.22
2022-07-25T18:19:00.785Z,37.22
2022-07-25T18:21:31.139Z,37.49
2022-07-25T18:24:01.776Z,37.75
2022-07-25T18:26:30.385Z,37.50
2022-07-25T18:28:59.589Z,37.79
2022-07-25T18:31:28.442Z,38.23
2022-07-25T18:33:58.972Z,38.70
2022-07-25T18:36:28.150Z,38.64
2022-07-25T18:38:59.222Z,38.34
2022-07-25T18:41:30.111Z,38.30
2022-07-25T18:50:45.621Z,42.53
2022-07-25T18:56:04.112Z,43.00
2022-07-25T18:58:32.894Z,42.58
2022-07-25T19:01:03.018Z,43.29
2022-07-25T19:03:34.128Z,43.00
2022-07-25T19:06:04.367Z,43.37
2022-07-25T19:08:33.546Z,43.94
2022-07-25T19:11:02.985Z,44.02
2022-07-25T19:16:21.958Z,44.20
2022-07-25T19:18:51.983Z,44.31
2022-07-25T19:21:23.656Z,44.83
2022-07-25T19:23:53.799Z,45.04
2022-07-25T19:26:23.754Z,45.27
2022-07-25T19:28:54.579Z,45.45
2022-07-25T19:31:25.021Z,45.64
2022-07-25T19:33:55.400Z,46.05
2022-07-25T19:36:27.238Z,45.64
2022-07-25T19:38:58.234Z,45.63
2022-07-25T19:41:28.233Z,45.45
2022-07-25T19:43:58.116Z,45.46
2022-07-25T19:46:31.795Z,45.47
2022-07-25T19:49:01.895Z,45.57
2022-07-25T19:51:34.881Z,45.74
2022-07-25T19:54:29.953Z,45.26
2022-07-25T19:57:02.400Z,44.62
2022-07-25T19:59:32.504Z,44.08
2022-07-25T20:02:02.826Z,43.44
2022-07-25T20:04:40.999Z,43.18
2022-07-25T20:07:13.056Z,43.48
2022-07-25T20:09:41.986Z,43.50
2022-07-25T20:12:10.638Z,44.07
2022-07-25T20:14:39.631Z,44.07
2022-07-25T20:17:08.579Z,44.12
2022-07-25T20:19:37.488Z,44.39
2022-07-25T20:22:06.783Z,44.83
2022-07-25T20:24:36.671Z,44.77
2022-07-25T20:27:05.817Z,44.88
2022-07-25T20:29:34.794Z,45.50
2022-07-25T20:32:04.015Z,45.45
2022-07-25T20:34:32.824Z,45.69
2022-07-25T20:37:01.368Z,46.11
2022-07-25T20:39:29.827Z,46.25
2022-07-25T20:41:59.848Z,46.66
2022-07-25T20:44:28.429Z,46.56
2022-07-25T20:46:56.941Z,46.52
2022-07-25T20:49:25.604Z,46.51
2022-07-25T20:51:54.824Z,46.69
2022-07-25T20:54:23.625Z,46.74
2022-07-25T20:56:53.179Z,46.81
2022-07-25T20:59:23.099Z,47.19
2022-07-25T21:01:51.799Z,47.09
2022-07-25T21:04:20.386Z,47.31
2022-07-25T21:06:48.935Z,47.39
2022-07-25T21:09:17.950Z,47.26
2022-07-25T21:11:46.483Z,47.26
2022-07-25T21:14:14.977Z,47.80
2022-07-25T21:16:45.010Z,47.44
2022-07-25T21:19:14.082Z,47.61
2022-07-25T21:21:42.544Z,47.88
2022-07-25T21:24:12.714Z,47.67
2022-07-25T21:26:41.104Z,47.78
2022-07-25T21:29:10.220Z,47.98
2022-07-25T21:31:40.029Z,48.20
2022-07-25T21:34:10.059Z,48.18
2022-07-25T21:36:38.507Z,48.47
2022-07-25T21:39:07.409Z,48.29
2022-07-25T21:41:36.843Z,48.27
2022-07-25T21:44:05.648Z,48.54
2022-07-25T21:46:34.450Z,48.71
2022-07-25T21:49:40.729Z,48.89
2022-07-25T21:52:13.970Z,48.87
2022-07-25T21:54:42.893Z,48.91
2022-07-25T21:57:13.448Z,49.16
2022-07-25T21:59:42.777Z,49.14
2022-07-25T22:02:11.473Z,49.12
2022-07-25T22:04:40.091Z,49.32
2022-07-25T22:07:10.090Z,49.46
2022-07-25T22:09:38.858Z,49.80
2022-07-25T22:12:08.357Z,49.93
2022-07-25T22:14:37.965Z,50.04
2022-07-25T22:17:07.046Z,49.96
2022-07-25T22:19:35.693Z,49.84
2022-07-25T22:22:04.483Z,50.02
2022-07-25T22:24:34.516Z,49.99
2022-07-25T22:27:03.078Z,49.88
2022-07-25T22:29:31.971Z,50.36
2022-07-25T22:32:01.192Z,50.08
2022-07-25T22:34:29.908Z,50.32
2022-07-25T22:36:58.437Z,50.46
2022-07-25T22:39:27.814Z,50.35
2022-07-25T22:41:57.653Z,50.55
2022-07-25T22:44:26.230Z,50.47
2022-07-25T22:46:54.801Z,50.54
2022-07-25T22:49:25.014Z,50.73
2022-07-25T22:51:53.598Z,50.54
2022-07-25T22:54:22.358Z,50.69
2022-07-25T22:56:51.114Z,50.57
2022-07-25T22:59:21.112Z,50.75
2022-07-25T23:01:49.689Z,50.73
2022-07-25T23:04:18.181Z,50.88
2022-07-25T23:06:46.706Z,50.79
2022-07-25T23:09:15.289Z,50.96
2022-07-25T23:11:44.100Z,50.93
2022-07-25T23:14:12.890Z,51.01
2022-07-25T23:16:44.499Z,50.75
2022-07-25T23:19:13.194Z,50.73
2022-07-25T23:21:41.609Z,50.77
2022-07-25T23:24:10.375Z,50.78
2022-07-25T23:26:38.867Z,50.66
2022-07-25T23:29:08.191Z,50.62
2022-07-25T23:31:36.893Z,50.63
2022-07-25T23:34:07.537Z,50.53
2022-07-25T23:36:35.935Z,50.66
2022-07-25T23:39:04.685Z,50.57
2022-07-25T23:41:33.334Z,50.50
2022-07-25T23:44:03.409Z,50.66
2022-07-25T23:46:32.722Z,50.56
2022-07-25T23:49:01.981Z,50.50
2022-07-25T23:51:33.565Z,50.26
2022-07-25T23:54:02.119Z,50.32
2022-07-25T23:56:31.076Z,50.10
2022-07-25T23:58:59.689Z,50.03
